الصفحة الرئيسية
METAR-TAF:

METAR-TAF

مطار :

ميسا, أريزونا, الولايات المتحدة

دائرة عرض: 33-19N, خط طول: 111-39W, ارتفاع: 421 متر

مراقبة الطقس الحالي

تاريخ ووقت الإصدار 33 دقيقة قبل الساعة 09:55UTC
ريح 13 عقدة من الجنوب الشرقي
درجة الحرارة 28°درجة مئوية
الرطوبة 19%
ضغط 1016 hPa
الرؤية: 16.1 كم
سماء صافية

METAR: KIWA 290955Z AUTO 13013KT 10SM CLR 28/02 A3000 RMK AO2 T02820023

زمن: 03:28 (10:28 UTC)

توقعات

تاريخ ووقت الإصدار 1ساعة و 36 دقيقة قبل الساعة 08:52UTC
التوقعات صالحة من29 الساعة 09 UTC إلى 30 الساعة 06 UTC
ريح 13 عقدة من الشرق/الجنوب الشرقي
الرؤية: 10 كم
سماء صافية
من 29 الساعة 1600 UTC
ريح 14 عقدة من الشرق/الجنوب الشرقي تتزايد حتى 22 عقدة
الرؤية: 10 كم
سماء صافية
من 29 الساعة 2000 UTC
ريح 8 عقدة من الجنوب الشرقي
الرؤية: 10 كم
سماء صافية
من 30 الساعة 0100 UTC
ريح 5 عقدة من الشمال الغربي
الرؤية: 10 كم
سماء صافية
من 30 الساعة 0400 UTC
ريح 5 عقدة من الشرق
الرؤية: 10 كم
سماء صافية

TAF: KIWA 290852Z 2909/3006 12013KT P6SM SKC FM291600 12014G22KT P6SM SKC FM292000 13008KT P6SM SKC FM300100 31005KT P6SM SKC FM300400 10005KT P6SM SKC AMD LTD TO CLD VIS AND WIND TIL 291200

أرصاد الطقس والتوقعات من أكثر من 4000 مطار (تقارير الطقس للمطار METAR والتنبؤ بالطقس بالمطارTAF).

المحطات المتاحة هي النقط الصفراء والحمراء على الخريطة.

حرك المؤشر فوق النقطة لمعرفة اسم المحطة.

ثم انقر لمعرفة أرصاد وتوقعات الطقس.

لتغيير الخارطة: اضغط على الأزرار الخضراء مع رمز الصليب الأسود للتكبير. على الزر الأخضر مع شرطة للتصغير، أو على الأسهم الخضراء للخرائط المجاورة.


METAR-TAF: